createdAt,value
2022-07-29T00:02:48.552Z,3.30
2022-07-29T00:05:53.045Z,2.67
2022-07-29T00:08:55.433Z,3.30
2022-07-29T00:12:01.135Z,2.97
2022-07-29T00:15:05.204Z,2.85
2022-07-29T00:18:07.740Z,2.97
2022-07-29T00:21:09.859Z,3.35
2022-07-29T00:24:12.501Z,2.55
2022-07-29T00:27:14.855Z,3.12
2022-07-29T00:30:17.307Z,3.50
2022-07-29T00:33:19.426Z,3.17
2022-07-29T00:36:22.626Z,3.03
2022-07-29T00:39:24.734Z,3.20
2022-07-29T00:42:29.261Z,2.80
2022-07-29T00:45:31.575Z,2.90
2022-07-29T00:48:34.053Z,3.17
2022-07-29T00:51:39.952Z,3.00
2022-07-29T00:54:44.042Z,2.90
2022-07-29T00:57:47.215Z,2.90
2022-07-29T01:00:49.752Z,2.90
2022-07-29T01:03:52.266Z,2.92
2022-07-29T01:06:55.623Z,3.12
2022-07-29T01:09:58.066Z,3.10
2022-07-29T01:13:02.271Z,3.22
2022-07-29T01:16:11.301Z,3.08
2022-07-29T01:19:33.914Z,3.30
2022-07-29T01:22:35.971Z,2.95
2022-07-29T01:26:07.687Z,2.97
2022-07-29T01:29:42.282Z,2.67
2022-07-29T01:32:51.026Z,2.75
2022-07-29T01:35:53.325Z,3.30
2022-07-29T01:39:05.218Z,3.05
2022-07-29T01:42:49.541Z,2.95
2022-07-29T01:45:58.743Z,3.05
2022-07-29T01:49:12.535Z,3.35
2022-07-29T01:52:22.792Z,3.47
2022-07-29T01:55:30.498Z,3.30
2022-07-29T02:01:38.233Z,3.20
2022-07-29T02:04:42.187Z,4.47
2022-07-29T02:07:47.342Z,3.37
2022-07-29T02:10:52.713Z,3.60
2022-07-29T02:13:57.502Z,3.00
2022-07-29T02:17:02.643Z,3.60
2022-07-29T02:20:06.238Z,3.20
2022-07-29T02:23:11.542Z,3.03
2022-07-29T02:26:13.773Z,3.20
2022-07-29T02:29:17.712Z,3.85
2022-07-29T02:32:22.220Z,3.30
2022-07-29T02:35:25.588Z,3.30
2022-07-29T02:38:48.835Z,3.80
2022-07-29T02:41:53.855Z,3.22
2022-07-29T02:44:56.678Z,3.37
2022-07-29T02:48:01.801Z,3.20
2022-07-29T02:51:43.928Z,3.20
2022-07-29T02:55:06.698Z,3.08
2022-07-29T02:58:23.732Z,3.35
2022-07-29T03:01:31.307Z,4.03
2022-07-29T03:04:35.321Z,4.27
2022-07-29T03:07:39.484Z,3.55
2022-07-29T03:10:45.453Z,3.30
2022-07-29T03:13:48.348Z,3.53
2022-07-29T03:16:51.841Z,3.17
2022-07-29T03:19:55.723Z,3.08
2022-07-29T03:22:58.010Z,3.22
2022-07-29T03:26:00.461Z,3.37
2022-07-29T03:29:02.616Z,3.55
2022-07-29T03:32:07.368Z,3.70
2022-07-29T03:35:10.207Z,3.33
2022-07-29T03:38:12.705Z,3.37
2022-07-29T03:41:16.154Z,2.97
2022-07-29T03:44:20.551Z,3.70
2022-07-29T03:47:43.477Z,3.40
2022-07-29T03:50:51.588Z,3.50
2022-07-29T03:53:54.392Z,3.15
2022-07-29T03:57:02.035Z,3.00
2022-07-29T04:00:06.383Z,3.28
2022-07-29T04:03:12.133Z,3.28
2022-07-29T04:06:17.420Z,3.20
2022-07-29T04:09:19.934Z,3.70
2022-07-29T04:12:22.141Z,3.47
2022-07-29T04:15:24.890Z,4.75
2022-07-29T04:18:27.062Z,4.15
2022-07-29T04:21:29.437Z,3.30
2022-07-29T04:24:31.546Z,4.68
2022-07-29T04:27:33.966Z,4.68
2022-07-29T04:30:38.052Z,4.22
2022-07-29T04:33:40.920Z,4.37
2022-07-29T04:36:43.019Z,3.85
2022-07-29T04:39:45.440Z,3.60
2022-07-29T04:42:47.917Z,3.37
2022-07-29T04:45:51.919Z,4.43
2022-07-29T04:48:54.150Z,4.30
2022-07-29T04:51:56.602Z,3.85
2022-07-29T04:54:58.745Z,3.53
2022-07-29T04:58:01.499Z,3.78
2022-07-29T05:01:05.057Z,3.58
2022-07-29T05:04:07.557Z,3.40
2022-07-29T05:07:09.689Z,3.47
2022-07-29T05:10:12.686Z,3.00
2022-07-29T05:13:14.999Z,2.95
2022-07-29T05:16:17.416Z,2.83
2022-07-29T05:19:19.642Z,2.40
2022-07-29T05:22:22.408Z,2.60
2022-07-29T05:25:43.454Z,2.40
2022-07-29T05:28:47.000Z,2.65
2022-07-29T05:31:49.187Z,2.50
2022-07-29T05:34:51.953Z,2.37
2022-07-29T05:37:54.178Z,2.67
2022-07-29T05:40:59.322Z,2.50
2022-07-29T05:44:01.498Z,2.10
2022-07-29T05:47:03.924Z,2.50
2022-07-29T05:50:06.728Z,2.67
2022-07-29T05:53:19.436Z,2.67
2022-07-29T05:56:22.612Z,2.50
2022-07-29T05:59:30.085Z,2.62
2022-07-29T06:02:32.727Z,2.35
2022-07-29T06:05:35.254Z,2.60
2022-07-29T06:08:37.876Z,2.47
2022-07-29T06:11:40.473Z,2.87
2022-07-29T06:14:42.611Z,2.28
2022-07-29T06:18:00.020Z,2.50
2022-07-29T06:21:09.537Z,2.30
2022-07-29T06:24:13.690Z,2.85
2022-07-29T06:27:17.202Z,2.83
2022-07-29T06:30:19.617Z,2.67
2022-07-29T06:33:21.749Z,2.80
2022-07-29T06:36:24.380Z,2.95
2022-07-29T06:39:27.394Z,2.83
2022-07-29T06:42:29.856Z,2.87
2022-07-29T06:45:35.378Z,2.95
2022-07-29T06:51:40.396Z,2.80
2022-07-29T06:54:48.895Z,3.83
2022-07-29T06:57:51.368Z,2.85
2022-07-29T07:00:53.930Z,2.65
2022-07-29T07:03:56.248Z,2.60
2022-07-29T07:06:58.880Z,2.60
2022-07-29T07:10:01.047Z,2.80
2022-07-29T07:13:04.222Z,2.70
2022-07-29T07:16:06.483Z,2.60
2022-07-29T07:19:09.001Z,2.50
2022-07-29T07:22:11.126Z,2.67
2022-07-29T07:25:15.349Z,3.33
2022-07-29T07:28:17.599Z,2.47
2022-07-29T07:31:20.244Z,2.80
2022-07-29T07:34:28.144Z,2.70
2022-07-29T07:37:31.966Z,2.83
2022-07-29T07:40:34.142Z,2.60
2022-07-29T07:43:36.503Z,2.75
2022-07-29T07:46:38.619Z,3.20
2022-07-29T07:49:42.103Z,2.70
2022-07-29T07:52:55.913Z,2.45
2022-07-29T07:56:13.693Z,2.90
2022-07-29T07:59:16.770Z,2.80
2022-07-29T08:02:19.268Z,2.90
2022-07-29T08:05:21.823Z,2.70
2022-07-29T08:08:23.934Z,2.90
2022-07-29T08:11:26.380Z,3.30
2022-07-29T08:14:31.208Z,3.10
2022-07-29T08:17:35.579Z,3.60
2022-07-29T08:20:39.254Z,4.28
2022-07-29T08:23:51.536Z,3.33
2022-07-29T08:26:55.381Z,3.20
2022-07-29T08:29:58.401Z,4.07
2022-07-29T08:33:00.624Z,3.35
2022-07-29T08:36:03.858Z,4.10
2022-07-29T08:39:06.606Z,3.60
2022-07-29T08:42:10.542Z,3.53
2022-07-29T08:45:13.225Z,3.72
2022-07-29T08:48:21.315Z,3.65
2022-07-29T08:51:25.700Z,3.37
2022-07-29T08:54:28.810Z,3.05
2022-07-29T08:57:32.599Z,3.87
2022-07-29T09:00:45.774Z,3.37
2022-07-29T09:03:48.774Z,3.20
2022-07-29T09:06:55.883Z,3.40
2022-07-29T09:09:58.379Z,3.72
2022-07-29T09:13:00.783Z,3.80
2022-07-29T09:16:08.581Z,3.83
2022-07-29T09:19:45.394Z,3.70
2022-07-29T09:22:51.785Z,3.62
2022-07-29T09:25:54.252Z,3.45
2022-07-29T09:28:56.660Z,3.58
2022-07-29T09:31:59.101Z,3.33
2022-07-29T09:35:22.116Z,3.10
2022-07-29T09:38:24.571Z,3.50
2022-07-29T09:41:28.028Z,3.17
2022-07-29T09:44:49.095Z,3.08
2022-07-29T09:47:51.630Z,3.83
2022-07-29T09:50:54.811Z,3.03
2022-07-29T09:53:57.120Z,3.30
2022-07-29T09:56:59.500Z,2.55
2022-07-29T10:00:07.728Z,2.62
2022-07-29T10:03:15.110Z,2.85
2022-07-29T10:06:17.640Z,3.20
2022-07-29T10:09:19.759Z,3.50
2022-07-29T10:12:25.474Z,3.37
2022-07-29T10:15:30.276Z,3.10
2022-07-29T10:18:33.495Z,2.83
2022-07-29T10:21:36.705Z,3.15
2022-07-29T10:24:39.644Z,3.10
2022-07-29T10:27:41.822Z,3.20
2022-07-29T10:30:46.241Z,2.75
2022-07-29T10:34:03.439Z,3.10
2022-07-29T10:37:25.750Z,2.75
2022-07-29T10:41:22.247Z,2.50
2022-07-29T10:44:28.058Z,2.67
2022-07-29T10:47:30.981Z,2.83
2022-07-29T10:50:58.113Z,3.45
2022-07-29T10:54:05.214Z,2.63
2022-07-29T10:57:40.507Z,2.80
2022-07-29T11:00:48.039Z,2.60
2022-07-29T11:03:57.225Z,2.62
2022-07-29T11:06:59.385Z,2.45
2022-07-29T11:10:15.264Z,2.33
2022-07-29T11:13:46.488Z,2.15
2022-07-29T11:17:06.430Z,2.10
2022-07-29T11:20:33.704Z,1.95
2022-07-29T11:23:37.888Z,2.60
2022-07-29T11:26:40.198Z,2.05
2022-07-29T11:29:53.495Z,2.20
2022-07-29T11:32:55.762Z,2.33
2022-07-29T11:36:16.859Z,2.35
2022-07-29T11:39:36.933Z,2.03
2022-07-29T11:42:42.114Z,2.53
2022-07-29T11:45:48.011Z,2.28
2022-07-29T11:48:50.732Z,2.20
2022-07-29T11:51:57.057Z,2.08
2022-07-29T11:55:09.605Z,2.53
2022-07-29T11:58:13.116Z,2.80
2022-07-29T12:01:18.253Z,1.80
2022-07-29T12:04:20.846Z,2.47
2022-07-29T12:07:32.658Z,2.62
2022-07-29T12:10:37.989Z,2.45
2022-07-29T12:13:40.820Z,2.25
2022-07-29T12:16:43.303Z,2.10
2022-07-29T12:19:46.229Z,2.30
2022-07-29T12:22:50.232Z,2.45
2022-07-29T12:25:53.075Z,2.67
2022-07-29T12:28:56.686Z,2.28
2022-07-29T12:31:59.425Z,2.20
2022-07-29T12:35:17.770Z,2.33
2022-07-29T12:38:20.527Z,2.15
2022-07-29T12:41:23.147Z,2.60
2022-07-29T12:44:26.375Z,2.50
2022-07-29T12:47:28.950Z,2.35
2022-07-29T12:50:32.892Z,2.20
2022-07-29T12:53:36.777Z,2.78
2022-07-29T12:56:44.113Z,2.45
2022-07-29T13:00:08.867Z,2.30
2022-07-29T13:03:10.990Z,2.45
2022-07-29T13:06:41.393Z,2.65
2022-07-29T13:09:48.504Z,2.30
2022-07-29T13:13:03.276Z,2.72
2022-07-29T13:16:08.973Z,2.60
2022-07-29T13:19:12.679Z,2.40
2022-07-29T13:22:22.805Z,2.47
2022-07-29T13:25:27.643Z,2.70
2022-07-29T13:28:29.942Z,2.55
2022-07-29T13:31:32.458Z,2.45
2022-07-29T13:34:34.570Z,2.53
2022-07-29T13:37:39.481Z,2.55
2022-07-29T13:40:42.726Z,2.70
2022-07-29T13:43:45.104Z,2.35
2022-07-29T13:46:47.207Z,3.08
2022-07-29T13:49:49.872Z,2.45
2022-07-29T13:52:52.278Z,2.40
2022-07-29T13:55:55.189Z,2.65
2022-07-29T13:58:58.119Z,2.80
2022-07-29T14:02:01.133Z,2.33
2022-07-29T14:05:08.254Z,2.60
2022-07-29T14:11:13.267Z,2.50
2022-07-29T14:14:15.377Z,2.30
2022-07-29T14:17:17.941Z,2.62
2022-07-29T14:20:20.130Z,2.35
2022-07-29T14:23:22.506Z,2.60
2022-07-29T14:26:25.206Z,2.25
2022-07-29T14:29:37.483Z,2.53
2022-07-29T14:32:40.874Z,2.70
2022-07-29T14:35:43.332Z,2.50
2022-07-29T14:38:45.724Z,2.45
2022-07-29T14:41:48.162Z,2.50
2022-07-29T14:44:50.310Z,2.35
2022-07-29T14:47:57.217Z,2.80
2022-07-29T14:51:04.402Z,2.50
2022-07-29T14:54:07.463Z,2.50
2022-07-29T14:57:09.678Z,2.60
2022-07-29T15:00:12.586Z,2.80
2022-07-29T15:03:22.989Z,2.60
2022-07-29T15:06:28.027Z,2.80
2022-07-29T15:09:30.242Z,2.78
2022-07-29T15:12:33.326Z,2.45
2022-07-29T15:15:35.515Z,2.47
2022-07-29T15:18:39.218Z,2.45
2022-07-29T15:21:48.847Z,2.30
2022-07-29T15:24:51.691Z,2.62
2022-07-29T15:27:56.629Z,2.70
2022-07-29T15:31:01.611Z,2.20
2022-07-29T15:34:06.285Z,2.55
2022-07-29T15:37:09.003Z,2.62
2022-07-29T15:40:11.752Z,2.70
2022-07-29T15:43:14.396Z,2.70
2022-07-29T15:46:38.496Z,2.80
2022-07-29T15:49:47.999Z,2.37
2022-07-29T15:52:51.839Z,2.55
2022-07-29T15:55:54.338Z,2.90
2022-07-29T15:58:56.569Z,2.67
2022-07-29T16:01:59.723Z,2.65
2022-07-29T16:05:02.182Z,2.60
2022-07-29T16:08:04.414Z,2.70
2022-07-29T16:11:06.804Z,2.20
2022-07-29T16:14:10.896Z,2.53
2022-07-29T16:17:14.247Z,2.60
2022-07-29T16:20:17.261Z,2.37
2022-07-29T16:23:19.662Z,2.80
2022-07-29T16:26:21.771Z,2.72
2022-07-29T16:29:24.224Z,2.55
2022-07-29T16:32:26.704Z,2.65
2022-07-29T16:35:39.455Z,2.40
2022-07-29T16:38:47.060Z,2.37
2022-07-29T16:41:50.083Z,3.00
2022-07-29T16:44:52.411Z,2.78
2022-07-29T16:48:00.062Z,3.00
2022-07-29T16:51:02.593Z,2.80
2022-07-29T16:54:05.109Z,2.42
2022-07-29T16:57:07.242Z,2.90
2022-07-29T17:00:10.629Z,2.42
2022-07-29T17:03:13.442Z,3.40
2022-07-29T17:06:16.095Z,2.95
2022-07-29T17:09:18.269Z,2.90
2022-07-29T17:12:20.707Z,2.72
2022-07-29T17:15:22.908Z,3.17
2022-07-29T17:18:25.331Z,2.92
2022-07-29T17:21:28.056Z,3.30
2022-07-29T17:24:30.739Z,3.05
2022-07-29T17:27:33.371Z,2.90
2022-07-29T17:30:35.751Z,3.22
2022-07-29T17:33:38.148Z,3.12
2022-07-29T17:36:40.586Z,3.35
2022-07-29T17:39:43.494Z,3.10
2022-07-29T17:42:46.152Z,3.15
2022-07-29T17:45:49.470Z,3.55
2022-07-29T17:48:54.732Z,2.78
2022-07-29T17:52:00.770Z,3.28
2022-07-29T17:55:03.826Z,3.77
2022-07-29T17:58:08.783Z,3.30
2022-07-29T18:01:11.364Z,3.17
2022-07-29T18:04:15.511Z,3.30
2022-07-29T18:07:18.513Z,3.12
2022-07-29T18:10:21.133Z,3.90
2022-07-29T18:13:23.325Z,3.67
2022-07-29T18:16:25.846Z,3.80
2022-07-29T18:19:29.563Z,3.70
2022-07-29T18:22:31.958Z,3.42
2022-07-29T18:25:34.362Z,3.50
2022-07-29T18:28:36.773Z,3.22
2022-07-29T18:31:41.057Z,3.67
2022-07-29T18:34:43.590Z,3.85
2022-07-29T18:38:00.915Z,3.45
2022-07-29T18:41:04.782Z,3.58
2022-07-29T18:44:06.935Z,3.85
2022-07-29T18:47:11.923Z,3.92
2022-07-29T18:50:14.648Z,4.47
2022-07-29T18:53:17.405Z,4.10
2022-07-29T18:56:19.698Z,4.25
2022-07-29T18:59:22.105Z,4.35
2022-07-29T19:02:24.615Z,4.10
2022-07-29T19:05:27.162Z,3.85
2022-07-29T19:08:29.284Z,4.10
2022-07-29T19:11:31.649Z,4.53
2022-07-29T19:14:33.772Z,4.65
2022-07-29T19:17:36.259Z,3.62
2022-07-29T19:20:39.072Z,3.70
2022-07-29T19:24:06.024Z,3.00
2022-07-29T19:27:03.827Z,3.60
2022-07-29T19:30:09.276Z,3.10
2022-07-29T19:33:13.861Z,3.50
2022-07-29T19:36:16.440Z,3.20
2022-07-29T19:39:18.577Z,3.33
2022-07-29T19:42:37.534Z,3.22
2022-07-29T19:45:39.719Z,2.90
2022-07-29T19:48:42.231Z,3.08
2022-07-29T19:51:44.418Z,2.97
2022-07-29T19:54:46.842Z,2.90
2022-07-29T19:57:49.597Z,2.45
2022-07-29T20:00:52.362Z,3.35
2022-07-29T20:03:54.806Z,3.12
2022-07-29T20:07:01.273Z,2.92
2022-07-29T20:10:06.374Z,3.10
2022-07-29T20:13:08.519Z,2.58
2022-07-29T20:16:11.062Z,2.70
2022-07-29T20:19:13.591Z,3.45
2022-07-29T20:22:21.032Z,3.25
2022-07-29T20:25:24.163Z,3.10
2022-07-29T20:28:26.583Z,3.50
2022-07-29T20:31:30.449Z,3.10
2022-07-29T20:34:33.110Z,3.37
2022-07-29T20:37:35.378Z,3.08
2022-07-29T20:40:58.800Z,3.35
2022-07-29T20:44:02.150Z,3.40
2022-07-29T20:47:04.757Z,3.12
2022-07-29T20:50:07.503Z,3.30
2022-07-29T20:53:09.946Z,3.08
2022-07-29T20:56:12.522Z,2.92
2022-07-29T20:59:14.998Z,3.15
2022-07-29T21:02:17.279Z,3.00
2022-07-29T21:05:19.834Z,3.30
2022-07-29T21:08:22.291Z,3.12
2022-07-29T21:11:44.529Z,2.95
2022-07-29T21:14:48.054Z,3.00
2022-07-29T21:17:52.639Z,3.30
2022-07-29T21:20:55.352Z,3.42
2022-07-29T21:23:57.787Z,3.30
2022-07-29T21:27:21.284Z,3.80
2022-07-29T21:30:24.113Z,3.10
2022-07-29T21:33:28.174Z,3.37
2022-07-29T21:39:52.823Z,3.92
2022-07-29T21:42:55.190Z,3.30
2022-07-29T21:45:59.347Z,2.90
2022-07-29T21:49:01.917Z,3.08
2022-07-29T21:52:04.958Z,3.67
2022-07-29T21:55:07.994Z,3.58
2022-07-29T21:58:15.282Z,3.15
2022-07-29T22:01:18.296Z,3.37
2022-07-29T22:04:20.979Z,3.40
2022-07-29T22:07:23.218Z,3.33
2022-07-29T22:10:26.765Z,3.55
2022-07-29T22:13:28.911Z,3.28
2022-07-29T22:16:31.417Z,3.30
2022-07-29T22:19:33.625Z,3.47
2022-07-29T22:22:36.219Z,3.15
2022-07-29T22:25:38.347Z,3.42
2022-07-29T22:28:40.844Z,3.40
2022-07-29T22:31:43.698Z,3.10
2022-07-29T22:34:46.414Z,3.45
2022-07-29T22:37:48.547Z,3.72
2022-07-29T22:40:52.297Z,3.60
2022-07-29T22:43:54.959Z,3.37
2022-07-29T22:46:58.431Z,3.53
2022-07-29T22:50:01.187Z,3.60
2022-07-29T22:53:03.965Z,3.60
2022-07-29T22:56:06.278Z,3.62
2022-07-29T22:59:08.715Z,3.70
2022-07-29T23:02:10.882Z,3.60
2022-07-29T23:05:15.637Z,3.20
2022-07-29T23:08:19.157Z,4.12
2022-07-29T23:11:21.618Z,3.33
2022-07-29T23:14:23.787Z,3.62
2022-07-29T23:17:26.226Z,3.60
2022-07-29T23:20:28.406Z,3.80
2022-07-29T23:23:32.398Z,3.85
2022-07-29T23:26:36.681Z,3.90
2022-07-29T23:29:39.293Z,3.45
2022-07-29T23:32:41.394Z,3.60
2022-07-29T23:35:43.830Z,4.05
2022-07-29T23:38:46.610Z,3.60
2022-07-29T23:41:49.056Z,3.55
2022-07-29T23:44:51.243Z,4.07
2022-07-29T23:47:53.638Z,3.60
2022-07-29T23:50:55.737Z,3.70
2022-07-29T23:53:58.208Z,3.75
2022-07-29T23:57:01.118Z,3.83
